createdAt,value
2023-04-15T00:01:02.757Z,7.57
2023-04-15T00:06:04.504Z,7.15
2023-04-15T00:11:06.260Z,7.90
2023-04-15T00:16:09.065Z,9.02
2023-04-15T00:21:10.738Z,11.35
2023-04-15T00:26:12.626Z,13.10
2023-04-15T00:31:15.398Z,10.57
2023-04-15T00:36:17.693Z,10.00
2023-04-15T00:41:19.634Z,11.63
2023-04-15T00:46:22.584Z,11.55
2023-04-15T00:51:24.860Z,10.07
2023-04-15T00:56:28.728Z,8.55
2023-04-15T01:01:31.526Z,8.55
2023-04-15T01:06:33.494Z,9.35
2023-04-15T01:11:35.684Z,8.95
2023-04-15T01:16:39.818Z,9.50
2023-04-15T01:21:41.598Z,9.00
2023-04-15T01:26:44.590Z,7.90
2023-04-15T01:31:52.419Z,8.10
2023-04-15T01:36:54.195Z,9.85
2023-04-15T01:41:56.343Z,9.15
2023-04-15T01:46:58.645Z,8.65
2023-04-15T01:52:00.584Z,9.02
2023-04-15T01:57:02.376Z,9.85
2023-04-15T02:02:04.637Z,8.20
2023-04-15T02:07:07.098Z,7.88
2023-04-15T02:12:09.474Z,9.70
2023-04-15T02:17:11.200Z,9.52
2023-04-15T02:22:18.226Z,9.27
2023-04-15T02:27:19.929Z,8.70
2023-04-15T02:32:23.308Z,8.50
2023-04-15T02:37:27.379Z,7.75
2023-04-15T02:42:30.302Z,7.45
2023-04-15T02:47:32.033Z,6.78
2023-04-15T02:52:33.779Z,6.47
2023-04-15T02:57:39.262Z,8.20
2023-04-15T03:02:42.278Z,5.97
2023-04-15T03:07:44.165Z,7.18
2023-04-15T03:12:46.177Z,7.15
2023-04-15T03:17:49.567Z,8.20
2023-04-15T03:22:51.449Z,9.10
2023-04-15T03:27:53.260Z,9.63
2023-04-15T03:32:55.003Z,10.45
2023-04-15T03:37:57.099Z,10.48
2023-04-15T03:42:58.857Z,11.52
2023-04-15T03:48:11.483Z,10.52
2023-04-15T03:53:17.607Z,10.98
2023-04-15T03:58:19.359Z,10.45
2023-04-15T04:03:21.400Z,12.38
2023-04-15T04:08:23.307Z,10.43
2023-04-15T04:13:25.268Z,9.90
2023-04-15T04:18:26.970Z,9.70
2023-04-15T04:23:28.749Z,10.35
2023-04-15T04:28:30.516Z,10.05
2023-04-15T04:33:32.211Z,11.25
2023-04-15T04:38:34.003Z,9.98
2023-04-15T04:43:35.887Z,9.00
2023-04-15T04:48:37.623Z,8.77
2023-04-15T04:53:39.468Z,10.05
2023-04-15T04:58:41.566Z,9.50
2023-04-15T05:03:43.530Z,9.68
2023-04-15T05:08:47.007Z,9.50
2023-04-15T05:13:48.758Z,8.50
2023-04-15T05:18:50.415Z,8.43
2023-04-15T05:23:52.342Z,7.72
2023-04-15T05:28:54.204Z,9.27
2023-04-15T05:33:55.932Z,10.38
2023-04-15T05:38:57.666Z,8.30
2023-04-15T05:43:59.365Z,8.93
2023-04-15T05:49:01.233Z,8.38
2023-04-15T05:54:03.233Z,7.05
2023-04-15T05:59:04.968Z,6.88
2023-04-15T06:04:06.843Z,8.75
2023-04-15T06:09:08.560Z,6.90
2023-04-15T06:14:10.316Z,6.07
2023-04-15T06:19:12.406Z,6.78
2023-04-15T06:24:14.308Z,6.32
2023-04-15T06:29:16.244Z,7.43
2023-04-15T06:34:18.016Z,6.15
2023-04-15T06:39:19.721Z,7.53
2023-04-15T06:44:21.450Z,6.60
2023-04-15T06:49:23.177Z,8.77
2023-04-15T06:54:24.866Z,8.95
2023-04-15T06:59:27.304Z,9.45
2023-04-15T07:04:29.145Z,9.25
2023-04-15T07:09:31.208Z,9.80
2023-04-15T07:14:32.938Z,10.93
2023-04-15T07:19:34.605Z,12.57
2023-04-15T07:24:36.372Z,10.30
2023-04-15T07:29:38.196Z,10.63
2023-04-15T07:34:39.969Z,14.48
2023-04-15T07:39:41.745Z,13.43
2023-04-15T07:44:43.439Z,13.93
2023-04-15T07:49:45.240Z,16.00
2023-04-15T07:54:46.935Z,14.55
2023-04-15T07:59:48.631Z,15.48
2023-04-15T08:04:50.408Z,16.10
2023-04-15T08:09:52.368Z,14.88
2023-04-15T08:14:55.479Z,14.85
2023-04-15T08:19:57.281Z,14.18
2023-04-15T08:24:59.532Z,15.80
2023-04-15T08:30:04.210Z,14.25
2023-04-15T08:35:07.838Z,17.40
2023-04-15T08:40:10.821Z,17.08
2023-04-15T08:45:12.527Z,18.92
2023-04-15T08:50:15.926Z,17.73
2023-04-15T08:55:17.928Z,21.20
2023-04-15T09:00:19.816Z,18.20
2023-04-15T09:05:21.804Z,17.55
2023-04-15T09:10:23.645Z,19.95
2023-04-15T09:15:29.849Z,17.50
2023-04-15T09:20:38.547Z,22.33
2023-04-15T09:25:44.123Z,22.50
2023-04-15T09:30:49.187Z,22.73
2023-04-15T09:36:04.716Z,25.77
2023-04-15T09:41:19.623Z,24.83
2023-04-15T09:46:40.284Z,23.80
2023-04-15T09:51:46.553Z,28.17
2023-04-15T09:56:56.194Z,27.63
2023-04-15T10:01:58.459Z,29.73
2023-04-15T10:07:01.040Z,28.77
2023-04-15T10:12:04.797Z,33.53
2023-04-15T10:17:11.335Z,28.02
2023-04-15T10:22:14.555Z,29.83
2023-04-15T10:27:18.132Z,33.08
2023-04-15T10:32:21.311Z,30.15
2023-04-15T10:37:33.642Z,32.90
2023-04-15T10:42:35.626Z,30.42
2023-04-15T10:47:37.600Z,32.30
2023-04-15T10:52:42.615Z,30.40
2023-04-15T10:57:45.168Z,33.13
2023-04-15T11:02:57.326Z,28.55
2023-04-15T11:07:59.397Z,30.40
2023-04-15T11:13:14.733Z,30.73
2023-04-15T11:18:24.857Z,30.15
2023-04-15T11:23:38.223Z,27.17
2023-04-15T11:28:41.812Z,28.90
2023-04-15T11:33:53.995Z,23.42
2023-04-15T11:38:57.505Z,24.42
2023-04-15T11:43:59.309Z,22.55
2023-04-15T11:49:01.651Z,22.02
2023-04-15T11:54:03.924Z,19.17
2023-04-15T11:59:05.897Z,20.85
2023-04-15T12:04:17.056Z,18.20
2023-04-15T12:09:20.332Z,19.77
2023-04-15T12:14:28.687Z,17.98
2023-04-15T12:19:35.352Z,15.90
2023-04-15T12:24:38.022Z,19.45
2023-04-15T12:29:41.883Z,16.75
2023-04-15T12:34:49.679Z,14.10
2023-04-15T12:39:52.261Z,14.95
2023-04-15T12:44:54.251Z,12.10
2023-04-15T12:49:55.969Z,10.60
2023-04-15T12:54:57.655Z,9.43
2023-04-15T12:59:59.372Z,10.10
2023-04-15T13:05:01.185Z,7.72
2023-04-15T13:10:02.973Z,6.38
2023-04-15T13:15:05.799Z,7.10
2023-04-15T13:20:08.889Z,9.50
2023-04-15T13:25:11.015Z,11.20
2023-04-15T13:30:13.362Z,8.18
2023-04-15T13:35:15.419Z,6.43
2023-04-15T13:40:17.447Z,7.00
2023-04-15T13:45:19.712Z,6.70
2023-04-15T13:50:22.076Z,6.75
2023-04-15T13:55:26.365Z,7.32
2023-04-15T14:00:29.165Z,7.85
2023-04-15T14:05:31.267Z,7.22
2023-04-15T14:10:33.389Z,7.95
2023-04-15T14:15:35.104Z,10.45
2023-04-15T14:20:36.779Z,8.70
2023-04-15T14:25:39.440Z,8.40
2023-04-15T14:30:41.198Z,6.68
2023-04-15T14:35:43.018Z,7.85
2023-04-15T14:40:45.189Z,5.97
2023-04-15T14:45:47.068Z,6.75
2023-04-15T14:50:49.062Z,7.57
2023-04-15T14:55:50.818Z,7.97
2023-04-15T15:00:52.748Z,7.82
2023-04-15T15:05:54.697Z,8.32
2023-04-15T15:10:59.353Z,7.40
2023-04-15T15:16:01.142Z,8.55
2023-04-15T15:21:02.862Z,6.90
2023-04-15T15:26:05.321Z,7.13
2023-04-15T15:31:07.065Z,7.07
2023-04-15T15:36:10.759Z,9.00
2023-04-15T15:41:12.482Z,8.93
2023-04-15T15:46:14.656Z,8.77
2023-04-15T15:51:16.394Z,8.07
2023-04-15T15:56:18.062Z,8.07
2023-04-15T16:01:19.969Z,8.80
2023-04-15T16:06:22.304Z,10.82
2023-04-15T16:11:24.264Z,9.25
2023-04-15T16:16:26.032Z,8.45
2023-04-15T16:21:28.317Z,8.50
2023-04-15T16:26:30.104Z,10.05
2023-04-15T16:31:32.027Z,9.57
2023-04-15T16:36:34.853Z,10.18
2023-04-15T16:41:38.372Z,10.20
2023-04-15T16:46:41.042Z,11.73
2023-04-15T16:51:42.850Z,11.48
2023-04-15T16:56:44.766Z,8.85
2023-04-15T17:01:46.863Z,11.57
2023-04-15T17:06:48.914Z,11.63
2023-04-15T17:11:50.759Z,13.02
2023-04-15T17:16:52.533Z,11.77
2023-04-15T17:21:55.063Z,14.05
2023-04-15T17:26:57.388Z,12.52
2023-04-15T17:31:59.863Z,11.65
2023-04-15T17:37:01.540Z,17.25
2023-04-15T17:42:03.246Z,11.07
2023-04-15T17:47:05.116Z,12.35
2023-04-15T17:52:07.075Z,13.20
2023-04-15T17:57:09.599Z,25.90
2023-04-15T18:02:11.815Z,14.18
2023-04-15T18:07:15.068Z,17.23
2023-04-15T18:12:16.833Z,13.70
2023-04-15T18:17:18.730Z,14.75
2023-04-15T18:22:20.632Z,13.93
2023-04-15T18:27:22.667Z,14.88
2023-04-15T18:32:25.042Z,15.75
2023-04-15T18:37:30.845Z,13.77
2023-04-15T18:42:32.624Z,15.30
2023-04-15T18:47:34.420Z,14.75
2023-04-15T18:52:36.436Z,14.63
2023-04-15T18:57:42.496Z,15.35
2023-04-15T19:02:46.194Z,14.88
2023-04-15T19:07:48.030Z,16.20
2023-04-15T19:12:49.718Z,17.35
2023-04-15T19:17:51.443Z,16.83
2023-04-15T19:22:54.662Z,15.65
2023-04-15T19:27:57.898Z,16.52
2023-04-15T19:33:01.402Z,23.67
2023-04-15T19:38:05.317Z,19.42
2023-04-15T19:43:07.532Z,18.33
2023-04-15T19:48:09.399Z,17.83
2023-04-15T19:53:11.116Z,17.55
2023-04-15T19:58:12.798Z,18.20
2023-04-15T20:03:14.770Z,17.80
2023-04-15T20:08:17.828Z,18.15
2023-04-15T20:13:19.552Z,17.95
2023-04-15T20:18:21.274Z,20.63
2023-04-15T20:23:23.051Z,18.85
2023-04-15T20:28:27.432Z,20.88
2023-04-15T20:33:29.405Z,20.15
2023-04-15T20:38:31.243Z,23.95
2023-04-15T20:43:33.206Z,20.42
2023-04-15T20:48:35.194Z,20.15
2023-04-15T20:53:38.200Z,21.15
2023-04-15T20:58:40.167Z,19.42
2023-04-15T21:03:42.251Z,17.55
2023-04-15T21:08:44.264Z,19.10
2023-04-15T21:13:46.469Z,20.48
2023-04-15T21:18:48.180Z,19.08
2023-04-15T21:23:49.877Z,20.30
2023-04-15T21:28:51.855Z,20.40
2023-04-15T21:33:53.621Z,17.33
2023-04-15T21:38:55.500Z,20.45
2023-04-15T21:43:57.337Z,20.92
2023-04-15T21:48:59.365Z,22.60
2023-04-15T21:54:01.275Z,19.98
2023-04-15T21:59:03.236Z,16.98
2023-04-15T22:04:07.507Z,19.92
2023-04-15T22:09:11.955Z,24.30
2023-04-15T22:14:14.979Z,24.17
2023-04-15T22:19:17.588Z,22.92
2023-04-15T22:24:34.403Z,22.27
2023-04-15T22:29:41.724Z,25.73
2023-04-15T22:34:43.409Z,23.23
2023-04-15T22:39:45.070Z,26.77
2023-04-15T22:44:46.897Z,27.17
2023-04-15T22:49:48.564Z,25.40
2023-04-15T22:54:50.299Z,26.42
2023-04-15T22:59:51.964Z,25.23
2023-04-15T23:04:53.794Z,24.38
2023-04-15T23:09:55.599Z,23.90
2023-04-15T23:14:57.284Z,22.90
2023-04-15T23:19:59.005Z,24.60
2023-04-15T23:25:00.667Z,24.40
2023-04-15T23:30:02.836Z,24.58
2023-04-15T23:35:05.133Z,26.67
2023-04-15T23:40:07.481Z,23.63
2023-04-15T23:45:10.388Z,23.27
2023-04-15T23:50:12.133Z,24.80
2023-04-15T23:55:13.827Z,24.83
